Time;durP1;ratioP1;P1;durP2;ratioP2;P2;SDS_P1;SDS_P2;PMS_P1;PMS_P2;Temp;Humidity;BMP_temperature;BMP_pressure;BME280_temperature;BME280_humidity;BME280_pressure;Samples;Min_cycle;Max_cycle;Signal;HPM_P1;HPM_P2
2022/05/29 00:00:07;;;;;;;4.20;0.68;;;;;;;;;;4918976;29;20509;-79
2022/05/29 00:02:33;;;;;;;4.18;0.88;;;;;;;;;;4906524;28;20128;-80
2022/05/29 00:04:58;;;;;;;3.70;0.68;;;;;;;;;;4920143;29;20082;-80
2022/05/29 00:07:23;;;;;;;3.55;0.70;;;;;;;;;;4935653;29;20406;-81
2022/05/29 00:09:49;;;;;;;2.78;0.70;;;;;;;;;;4935806;29;20043;-80
2022/05/29 00:12:16;;;;;;;2.60;0.57;;;;;;;;;;4936454;29;20176;-81
2022/05/29 00:14:42;;;;;;;3.28;0.65;;;;;;;;;;4935559;29;20569;-80
2022/05/29 00:17:08;;;;;;;4.25;1.02;;;;;;;;;;5002625;28;20065;-80
2022/05/29 00:19:34;;;;;;;3.00;0.80;;;;;;;;;;4935532;29;20485;-80
2022/05/29 00:22:00;;;;;;;2.92;0.50;;;;;;;;;;4919633;29;20059;-80
2022/05/29 00:24:26;;;;;;;1.83;0.60;;;;;;;;;;4935548;28;20066;-81
2022/05/29 00:26:51;;;;;;;4.13;0.63;;;;;;;;;;4934629;28;20501;-81
2022/05/29 00:29:17;;;;;;;2.67;0.70;;;;;;;;;;4903593;29;20181;-80
2022/05/29 00:31:42;;;;;;;3.83;0.70;;;;;;;;;;4935729;29;20039;-80
2022/05/29 00:34:08;;;;;;;2.20;0.63;;;;;;;;;;4935475;28;20046;-80
2022/05/29 00:36:34;;;;;;;3.58;0.82;;;;;;;;;;4919741;28;20410;-80
2022/05/29 00:39:00;;;;;;;2.72;0.82;;;;;;;;;;4951078;29;20031;-80
2022/05/29 00:41:25;;;;;;;3.65;0.70;;;;;;;;;;4904097;28;20561;-80
2022/05/29 00:44:16;;;;;;;3.22;0.80;;;;;;;;;;4950835;28;20120;-80
2022/05/29 00:47:10;;;;;;;1.30;0.47;;;;;;;;;;4951131;28;20043;-80
2022/05/29 00:49:36;;;;;;;2.97;0.85;;;;;;;;;;4935144;28;20074;-80
2022/05/29 00:52:04;;;;;;;3.03;0.70;;;;;;;;;;4919704;29;20139;-79
2022/05/29 00:54:31;;;;;;;3.50;0.80;;;;;;;;;;4951143;29;20047;-80
2022/05/29 00:56:57;;;;;;;2.20;0.70;;;;;;;;;;4918637;28;20559;-80
2022/05/29 00:59:25;;;;;;;2.83;0.95;;;;;;;;;;4934588;28;20112;-80
2022/05/29 01:01:50;;;;;;;2.60;0.95;;;;;;;;;;4932113;29;20048;-80
2022/05/29 01:04:16;;;;;;;1.55;0.60;;;;;;;;;;4998806;28;20070;-80
2022/05/29 01:06:41;;;;;;;2.47;0.70;;;;;;;;;;4966202;28;20517;-80
2022/05/29 01:09:07;;;;;;;3.22;0.68;;;;;;;;;;4982403;28;20513;-80
2022/05/29 01:11:54;;;;;;;3.63;1.05;;;;;;;;;;4998531;28;20078;-81
2022/05/29 01:14:22;;;;;;;2.35;0.75;;;;;;;;;;4998568;28;20042;-80
2022/05/29 01:17:20;;;;;;;3.13;0.70;;;;;;;;;;4998517;28;20532;-80
2022/05/29 01:20:31;;;;;;;2.35;0.95;;;;;;;;;;4939813;29;20059;-80
2022/05/29 01:23:26;;;;;;;3.50;0.60;;;;;;;;;;4969928;28;20056;-80
2022/05/29 01:26:12;;;;;;;2.63;0.55;;;;;;;;;;4991712;28;20042;-80
2022/05/29 01:28:58;;;;;;;2.33;0.50;;;;;;;;;;4934699;29;20043;-80
2022/05/29 01:31:50;;;;;;;3.90;1.00;;;;;;;;;;4934820;28;20043;-80
2022/05/29 01:34:21;;;;;;;1.67;0.50;;;;;;;;;;4920144;28;20075;-80
2022/05/29 01:36:52;;;;;;;2.97;0.95;;;;;;;;;;5000589;28;20055;-80
2022/05/29 01:39:27;;;;;;;2.72;0.75;;;;;;;;;;4934191;28;20118;-80
2022/05/29 01:42:22;;;;;;;5.20;0.80;;;;;;;;;;4918608;28;20118;-81
2022/05/29 01:44:53;;;;;;;3.20;0.60;;;;;;;;;;4915063;29;20113;-80
2022/05/29 01:47:21;;;;;;;2.97;0.80;;;;;;;;;;4934141;29;20569;-80
2022/05/29 01:49:51;;;;;;;2.75;0.63;;;;;;;;;;4985154;28;20785;-80
2022/05/29 01:52:32;;;;;;;4.13;0.77;;;;;;;;;;4902927;28;20039;-80
2022/05/29 01:55:05;;;;;;;2.75;0.68;;;;;;;;;;4920769;29;20047;-80
2022/05/29 01:57:39;;;;;;;3.75;1.00;;;;;;;;;;4902551;29;20450;-81
2022/05/29 02:00:09;;;;;;;2.35;0.70;;;;;;;;;;4903162;29;20466;-80
2022/05/29 02:02:42;;;;;;;3.13;0.82;;;;;;;;;;4934362;28;20058;-80
2022/05/29 02:05:14;;;;;;;3.08;0.70;;;;;;;;;;4934007;28;20044;-80
2022/05/29 02:07:48;;;;;;;2.20;0.82;;;;;;;;;;4934158;29;20039;-80
2022/05/29 02:10:41;;;;;;;3.30;0.98;;;;;;;;;;4934593;28;20032;-80
2022/05/29 02:13:26;;;;;;;2.63;0.55;;;;;;;;;;5017201;28;20043;-80
2022/05/29 02:16:19;;;;;;;2.65;0.60;;;;;;;;;;4934235;28;20062;-80
2022/05/29 02:18:51;;;;;;;4.68;0.70;;;;;;;;;;5014301;28;20174;-80
2022/05/29 02:21:37;;;;;;;1.77;0.65;;;;;;;;;;4933766;29;20050;-80
2022/05/29 02:24:05;;;;;;;3.05;0.70;;;;;;;;;;4950112;29;20066;-80
2022/05/29 02:26:35;;;;;;;2.42;0.65;;;;;;;;;;4930472;28;20038;-80
2022/05/29 02:29:05;;;;;;;3.30;0.75;;;;;;;;;;5012980;28;20043;-80
2022/05/29 02:31:49;;;;;;;4.78;0.93;;;;;;;;;;4980597;28;20074;-80
2022/05/29 02:34:53;;;;;;;3.95;1.17;;;;;;;;;;4931076;28;20039;-80
2022/05/29 02:37:42;;;;;;;3.50;0.73;;;;;;;;;;4986689;28;20581;-80
2022/05/29 02:40:21;;;;;;;3.65;1.13;;;;;;;;;;4997161;28;20039;-80
2022/05/29 02:43:00;;;;;;;3.50;0.60;;;;;;;;;;4991132;28;20066;-80
2022/05/29 02:45:47;;;;;;;3.35;0.60;;;;;;;;;;4995593;28;20143;-80
2022/05/29 02:48:30;;;;;;;2.90;0.68;;;;;;;;;;4931169;28;20035;-80
2022/05/29 02:51:07;;;;;;;4.53;1.30;;;;;;;;;;4930553;29;20087;-80
2022/05/29 02:53:33;;;;;;;3.03;0.80;;;;;;;;;;5011035;28;20032;-81
2022/05/29 02:55:58;;;;;;;5.68;1.20;;;;;;;;;;4996495;28;20524;-80
2022/05/29 02:58:26;;;;;;;3.10;0.93;;;;;;;;;;5013357;28;20043;-80
2022/05/29 03:01:10;;;;;;;1.98;0.82;;;;;;;;;;4999368;28;20047;-80
2022/05/29 03:03:53;;;;;;;3.45;0.70;;;;;;;;;;4949382;29;20047;-80
2022/05/29 03:06:25;;;;;;;2.35;0.63;;;;;;;;;;5016628;28;20134;-81
2022/05/29 03:09:10;;;;;;;2.90;0.70;;;;;;;;;;4949499;29;20394;-80
2022/05/29 03:11:41;;;;;;;2.70;0.70;;;;;;;;;;4933387;28;20073;-80
2022/05/29 03:14:11;;;;;;;3.70;0.93;;;;;;;;;;5000090;28;20036;-80
2022/05/29 03:17:16;;;;;;;2.60;0.90;;;;;;;;;;4933274;28;20540;-80
2022/05/29 03:20:10;;;;;;;4.38;1.27;;;;;;;;;;4952440;28;20068;-80
2022/05/29 03:22:35;;;;;;;3.03;1.40;;;;;;;;;;4949257;29;20126;-80
2022/05/29 03:25:22;;;;;;;2.38;0.70;;;;;;;;;;5016417;28;20577;-80
2022/05/29 03:27:49;;;;;;;4.07;0.90;;;;;;;;;;4949991;28;20055;-80
2022/05/29 03:30:19;;;;;;;3.72;0.85;;;;;;;;;;4964607;28;20461;-80
2022/05/29 03:32:44;;;;;;;2.08;0.60;;;;;;;;;;4996969;28;20040;-80
2022/05/29 03:35:19;;;;;;;3.75;0.82;;;;;;;;;;4980761;28;20040;-80
2022/05/29 03:37:44;;;;;;;2.67;0.70;;;;;;;;;;4913435;29;20086;-80
2022/05/29 03:40:10;;;;;;;3.22;0.90;;;;;;;;;;4980640;28;20067;-81
2022/05/29 03:42:36;;;;;;;4.50;1.10;;;;;;;;;;4947954;29;20445;-80
2022/05/29 03:45:01;;;;;;;2.42;0.73;;;;;;;;;;4980459;28;20058;-80
2022/05/29 03:47:27;;;;;;;2.90;0.75;;;;;;;;;;4980317;28;20421;-80
2022/05/29 03:49:52;;;;;;;2.58;0.85;;;;;;;;;;4913956;29;20039;-80
2022/05/29 03:52:18;;;;;;;1.48;0.45;;;;;;;;;;4963913;28;20069;-80
2022/05/29 03:54:43;;;;;;;5.85;0.85;;;;;;;;;;4964421;28;20040;-80
2022/05/29 03:57:09;;;;;;;2.33;0.55;;;;;;;;;;4947790;29;20036;-81
2022/05/29 03:59:34;;;;;;;2.75;0.73;;;;;;;;;;4963851;28;20391;-80
2022/05/29 04:02:00;;;;;;;3.45;1.48;;;;;;;;;;4996038;28;20039;-81
2022/05/29 04:04:25;;;;;;;2.63;0.85;;;;;;;;;;5019590;28;20039;-80
2022/05/29 04:06:50;;;;;;;2.88;0.57;;;;;;;;;;5019072;28;20035;-80
2022/05/29 04:12:06;;;;;;;2.58;0.80;;;;;;;;;;5009770;28;20486;-80
2022/05/29 04:14:37;;;;;;;3.28;0.90;;;;;;;;;;5016538;28;20043;-80
2022/05/29 04:17:03;;;;;;;4.80;0.80;;;;;;;;;;5002663;28;20031;-80
2022/05/29 04:19:28;;;;;;;2.92;0.90;;;;;;;;;;5002742;28;20450;-80
2022/05/29 04:21:54;;;;;;;2.50;0.90;;;;;;;;;;5002298;28;20063;-80
2022/05/29 04:24:20;;;;;;;1.40;0.52;;;;;;;;;;4920029;28;20498;-80
2022/05/29 04:26:49;;;;;;;2.75;1.50;;;;;;;;;;5018718;28;20501;-80
2022/05/29 04:29:15;;;;;;;3.95;0.70;;;;;;;;;;4935864;29;20039;-80
2022/05/29 04:32:59;;;;;;;2.20;0.93;;;;;;;;;;4920030;28;20096;-80
2022/05/29 04:34:26;;;;;;;5.82;1.45;;;;;;;;;;4938672;28;20478;-80
2022/05/29 04:36:51;;;;;;;2.25;0.85;;;;;;;;;;4950998;29;20058;-80
2022/05/29 04:39:17;;;;;;;6.05;1.10;;;;;;;;;;4935502;29;20067;-79
2022/05/29 04:41:42;;;;;;;4.30;1.02;;;;;;;;;;4935591;28;20386;-80
2022/05/29 04:44:08;;;;;;;2.78;0.90;;;;;;;;;;4935315;29;20447;-80
2022/05/29 04:46:33;;;;;;;2.65;0.85;;;;;;;;;;4935751;28;20444;-80
2022/05/29 04:48:59;;;;;;;3.63;1.10;;;;;;;;;;4935097;28;20416;-80
2022/05/29 04:51:24;;;;;;;4.28;1.10;;;;;;;;;;4934788;29;20386;-80
2022/05/29 04:53:50;;;;;;;3.17;0.88;;;;;;;;;;4919493;29;20448;-80
2022/05/29 04:56:15;;;;;;;4.32;0.95;;;;;;;;;;4951111;29;20039;-80
2022/05/29 04:58:40;;;;;;;2.83;0.65;;;;;;;;;;4935366;29;20109;-80
2022/05/29 05:01:06;;;;;;;5.97;1.08;;;;;;;;;;4901727;28;20081;-80
2022/05/29 05:03:31;;;;;;;10.25;1.52;;;;;;;;;;4932837;29;20417;-80
2022/05/29 05:05:57;;;;;;;9.38;1.30;;;;;;;;;;4932332;29;20443;-79
2022/05/29 05:08:22;;;;;;;5.18;1.75;;;;;;;;;;4917494;28;20035;-80
2022/05/29 05:10:48;;;;;;;3.17;1.05;;;;;;;;;;4934950;29;20047;-80
2022/05/29 05:13:17;;;;;;;2.53;1.15;;;;;;;;;;4934638;28;20436;-81
2022/05/29 05:15:43;;;;;;;2.22;0.85;;;;;;;;;;4950753;28;20043;-80
2022/05/29 05:18:08;;;;;;;3.80;1.02;;;;;;;;;;4934672;29;20146;-80
2022/05/29 05:20:35;;;;;;;3.65;0.70;;;;;;;;;;4934847;28;20039;-80
2022/05/29 05:23:01;;;;;;;4.35;0.90;;;;;;;;;;4934807;29;20038;-79
2022/05/29 05:25:26;;;;;;;5.18;1.05;;;;;;;;;;5002051;28;20039;-80
2022/05/29 05:27:51;;;;;;;3.22;0.98;;;;;;;;;;4934877;29;20055;-80
2022/05/29 05:30:17;;;;;;;3.85;0.73;;;;;;;;;;4935041;28;20059;-81
2022/05/29 05:32:42;;;;;;;5.38;0.70;;;;;;;;;;4919002;29;20130;-81
2022/05/29 05:35:08;;;;;;;3.63;1.00;;;;;;;;;;4934743;28;20154;-81
2022/05/29 05:37:35;;;;;;;2.95;0.80;;;;;;;;;;4918445;28;20039;-81
2022/05/29 05:40:03;;;;;;;13.23;2.15;;;;;;;;;;4935089;29;20039;-81
2022/05/29 05:42:28;;;;;;;5.63;1.33;;;;;;;;;;4918864;28;20027;-81
2022/05/29 05:44:54;;;;;;;7.32;0.90;;;;;;;;;;4918971;28;20039;-81
2022/05/29 05:47:22;;;;;;;2.55;0.68;;;;;;;;;;4918588;28;20118;-82
2022/05/29 05:49:48;;;;;;;5.32;1.00;;;;;;;;;;4918699;29;20039;-81
2022/05/29 05:52:14;;;;;;;9.35;1.17;;;;;;;;;;4950089;29;20035;-81
2022/05/29 05:54:40;;;;;;;4.38;1.40;;;;;;;;;;4918645;28;20453;-81
2022/05/29 05:57:06;;;;;;;5.05;1.00;;;;;;;;;;4918497;29;20130;-81
2022/05/29 05:59:32;;;;;;;4.40;1.25;;;;;;;;;;4918613;28;20051;-82
2022/05/29 06:01:58;;;;;;;5.82;0.95;;;;;;;;;;4933918;28;20035;-82
2022/05/29 06:04:24;;;;;;;12.15;1.35;;;;;;;;;;5001300;28;20127;-81
2022/05/29 06:06:50;;;;;;;38.00;5.03;;;;;;;;;;4919033;28;20048;-82
2022/05/29 06:09:17;;;;;;;8.80;1.73;;;;;;;;;;5002179;28;20074;-82
2022/05/29 06:11:43;;;;;;;8.57;1.48;;;;;;;;;;5000130;28;20046;-81
2022/05/29 06:14:09;;;;;;;17.02;2.20;;;;;;;;;;4934535;29;20062;-81
2022/05/29 06:16:35;;;;;;;14.88;1.88;;;;;;;;;;5016986;28;20437;-81
2022/05/29 06:19:02;;;;;;;8.43;1.65;;;;;;;;;;5000893;28;20044;-81
2022/05/29 06:21:28;;;;;;;9.75;2.08;;;;;;;;;;5000952;28;20027;-81
2022/05/29 06:23:53;;;;;;;7.50;1.38;;;;;;;;;;5016529;28;20114;-82
2022/05/29 06:26:19;;;;;;;6.13;1.30;;;;;;;;;;5016984;28;20031;-81
2022/05/29 06:28:44;;;;;;;6.97;1.23;;;;;;;;;;4933703;29;20409;-83
2022/05/29 06:31:11;;;;;;;11.23;1.80;;;;;;;;;;4949709;28;20039;-79
2022/05/29 06:33:37;;;;;;;6.13;1.05;;;;;;;;;;4918202;28;20058;-79
2022/05/29 06:36:10;;;;;;;7.45;1.15;;;;;;;;;;4917891;28;20035;-80
2022/05/29 06:38:41;;;;;;;7.38;1.50;;;;;;;;;;4933965;28;20634;-80
2022/05/29 06:41:09;;;;;;;8.95;1.38;;;;;;;;;;4918964;28;20085;-80
2022/05/29 06:43:35;;;;;;;8.32;1.45;;;;;;;;;;4949671;28;20045;-80
2022/05/29 06:46:03;;;;;;;6.65;0.98;;;;;;;;;;4945905;29;20118;-80
2022/05/29 06:48:31;;;;;;;4.93;1.20;;;;;;;;;;4974493;28;20066;-80
2022/05/29 06:50:57;;;;;;;3.63;0.82;;;;;;;;;;4979655;28;20114;-80
2022/05/29 06:53:23;;;;;;;3.97;0.88;;;;;;;;;;4984154;28;20451;-80
2022/05/29 06:55:54;;;;;;;6.03;1.05;;;;;;;;;;4933474;29;20417;-80
2022/05/29 06:58:20;;;;;;;3.95;0.70;;;;;;;;;;4917761;28;20065;-80
2022/05/29 07:08:58;;;;;;;3.28;0.90;;;;;;;;;;5021952;28;20064;-80
2022/05/29 07:11:24;;;;;;;4.95;1.05;;;;;;;;;;5000791;28;20039;-80
2022/05/29 07:13:50;;;;;;;8.43;1.38;;;;;;;;;;5000533;28;20174;-80
2022/05/29 07:16:15;;;;;;;12.07;1.27;;;;;;;;;;5016589;28;20032;-80
2022/05/29 07:18:41;;;;;;;6.10;1.23;;;;;;;;;;5016609;28;20053;-79
2022/05/29 07:21:07;;;;;;;10.25;1.45;;;;;;;;;;4951106;28;20118;-80
2022/05/29 07:23:36;;;;;;;12.52;1.42;;;;;;;;;;4936790;28;20556;-80
2022/05/29 07:26:03;;;;;;;9.60;1.55;;;;;;;;;;4999518;28;20449;-82
2022/05/29 07:28:28;;;;;;;10.90;1.80;;;;;;;;;;4981332;28;20497;-81
2022/05/29 07:30:55;;;;;;;9.48;1.48;;;;;;;;;;4983017;28;20039;-82
2022/05/29 07:33:20;;;;;;;8.73;1.88;;;;;;;;;;4983169;28;20047;-82
2022/05/29 07:35:47;;;;;;;6.43;0.90;;;;;;;;;;4986803;28;20039;-85
2022/05/29 07:38:13;;;;;;;5.72;1.10;;;;;;;;;;4989806;28;20047;-84
2022/05/29 07:40:38;;;;;;;5.85;1.13;;;;;;;;;;4952330;29;20118;-82
2022/05/29 07:43:19;;;;;;;6.22;1.25;;;;;;;;;;4936258;28;20047;-82
2022/05/29 07:46:04;;;;;;;6.63;1.00;;;;;;;;;;4920431;28;20035;-81
2022/05/29 07:48:30;;;;;;;5.00;1.08;;;;;;;;;;4919737;28;20058;-81
2022/05/29 07:50:56;;;;;;;7.90;1.13;;;;;;;;;;4920251;28;20042;-81
2022/05/29 07:53:22;;;;;;;3.97;1.13;;;;;;;;;;4935832;28;20043;-81
2022/05/29 07:55:47;;;;;;;5.20;1.00;;;;;;;;;;4901130;28;20046;-81
2022/05/29 07:58:13;;;;;;;4.97;1.27;;;;;;;;;;4932927;29;20104;-81
2022/05/29 08:00:38;;;;;;;4.15;1.17;;;;;;;;;;4936509;29;20444;-81
2022/05/29 08:03:04;;;;;;;8.00;1.33;;;;;;;;;;4917739;28;20494;-81
2022/05/29 08:05:31;;;;;;;5.35;1.27;;;;;;;;;;5003224;28;20126;-81
2022/05/29 08:07:57;;;;;;;5.22;1.25;;;;;;;;;;4986003;28;20039;-80
2022/05/29 08:10:22;;;;;;;3.45;1.05;;;;;;;;;;4986726;28;20421;-81
2022/05/29 08:12:48;;;;;;;4.40;1.10;;;;;;;;;;5002555;28;20043;-80
2022/05/29 08:15:14;;;;;;;7.60;1.05;;;;;;;;;;5002989;28;20040;-81
2022/05/29 08:17:40;;;;;;;5.70;1.48;;;;;;;;;;4986428;28;20038;-80
2022/05/29 08:20:06;;;;;;;5.35;1.02;;;;;;;;;;4986249;28;20071;-80
2022/05/29 08:22:31;;;;;;;4.70;1.58;;;;;;;;;;4970267;28;20532;-81
2022/05/29 08:30:43;;;;;;;5.10;0.98;;;;;;;;;;4924608;29;20093;-80
2022/05/29 08:33:13;;;;;;;4.55;1.33;;;;;;;;;;4970391;28;20047;-81
2022/05/29 08:35:39;;;;;;;3.85;1.23;;;;;;;;;;4982891;28;20441;-81
2022/05/29 08:38:05;;;;;;;2.83;0.90;;;;;;;;;;4982080;28;20125;-80
2022/05/29 08:40:31;;;;;;;6.47;1.73;;;;;;;;;;4982407;28;20082;-80
2022/05/29 08:42:58;;;;;;;2.47;0.95;;;;;;;;;;4981528;28;20481;-78
2022/05/29 08:45:23;;;;;;;3.78;0.93;;;;;;;;;;4981862;28;20028;-78
2022/05/29 08:47:49;;;;;;;3.10;0.95;;;;;;;;;;4981650;28;20044;-78
2022/05/29 08:50:23;;;;;;;2.05;0.68;;;;;;;;;;4982285;28;20040;-79
2022/05/29 08:53:21;;;;;;;7.78;0.98;;;;;;;;;;4980470;28;20075;-77
2022/05/29 08:55:52;;;;;;;5.05;1.15;;;;;;;;;;4932161;28;20056;-78
2022/05/29 08:58:30;;;;;;;4.97;0.95;;;;;;;;;;5017137;28;20037;-79
2022/05/29 09:01:31;;;;;;;5.28;1.17;;;;;;;;;;4997567;28;20051;-79
2022/05/29 09:04:01;;;;;;;20.10;1.80;;;;;;;;;;4955153;28;20055;-79
2022/05/29 09:06:37;;;;;;;9.23;1.45;;;;;;;;;;4950876;28;20039;-79
2022/05/29 09:09:18;;;;;;;14.80;1.38;;;;;;;;;;4935151;28;20112;-78
2022/05/29 09:11:51;;;;;;;10.13;1.92;;;;;;;;;;4934777;28;20039;-78
2022/05/29 09:14:23;;;;;;;15.02;1.58;;;;;;;;;;4951061;28;20053;-78
2022/05/29 09:17:00;;;;;;;;;;;;;;;;;;4935036;29;20032;-78
2022/05/29 09:19:43;;;;;;;9.07;1.67;;;;;;;;;;4934418;29;20443;-79
2022/05/29 09:22:27;;;;;;;9.57;1.65;;;;;;;;;;4919025;28;20043;-79
2022/05/29 09:25:10;;;;;;;15.80;2.22;;;;;;;;;;4919111;28;20031;-78
2022/05/29 09:27:36;;;;;;;8.55;1.40;;;;;;;;;;4934249;28;20548;-78
2022/05/29 09:30:03;;;;;;;9.88;1.65;;;;;;;;;;5001561;28;20122;-78
2022/05/29 09:32:30;;;;;;;6.53;1.70;;;;;;;;;;4934646;28;20123;-78
2022/05/29 09:35:05;;;;;;;8.38;1.30;;;;;;;;;;4985173;28;20027;-79
2022/05/29 09:37:53;;;;;;;5.10;1.08;;;;;;;;;;4950606;28;20143;-79
2022/05/29 09:40:22;;;;;;;8.20;1.95;;;;;;;;;;4917548;28;20048;-78
2022/05/29 09:42:48;;;;;;;7.25;1.05;;;;;;;;;;4917703;28;20039;-78
2022/05/29 09:45:22;;;;;;;15.23;1.52;;;;;;;;;;4934646;28;20047;-78
2022/05/29 09:50:56;;;;;;;6.65;1.08;;;;;;;;;;4936340;29;20035;-78
2022/05/29 09:53:32;;;;;;;9.40;1.58;;;;;;;;;;4911506;28;20417;-78
2022/05/29 09:56:02;;;;;;;9.05;2.00;;;;;;;;;;5006816;28;20043;-77
2022/05/29 09:58:40;;;;;;;10.43;1.58;;;;;;;;;;5016027;28;20031;-78
2022/05/29 10:01:06;;;;;;;28.45;4.00;;;;;;;;;;4918831;28;20049;-78
2022/05/29 10:03:49;;;;;;;32.83;4.68;;;;;;;;;;4933466;28;20035;-78
2022/05/29 10:06:37;;;;;;;49.78;7.28;;;;;;;;;;4918250;29;20403;-79
2022/05/29 10:09:13;;;;;;;54.55;6.35;;;;;;;;;;5015490;28;20046;-78
2022/05/29 10:11:39;;;;;;;38.70;5.80;;;;;;;;;;4949904;28;20093;-78
2022/05/29 10:14:42;;;;;;;35.47;4.38;;;;;;;;;;5000751;28;20036;-79
2022/05/29 10:17:32;;;;;;;29.23;4.53;;;;;;;;;;4947179;28;20189;-78
2022/05/29 10:19:57;;;;;;;26.83;5.22;;;;;;;;;;4991113;28;20137;-78
2022/05/29 10:22:38;;;;;;;28.20;4.65;;;;;;;;;;4913286;28;20048;-79
2022/05/29 10:25:14;;;;;;;15.48;2.75;;;;;;;;;;4980855;28;20032;-79
2022/05/29 10:27:40;;;;;;;17.58;2.90;;;;;;;;;;4998401;28;20517;-78
2022/05/29 10:30:10;;;;;;;16.63;2.83;;;;;;;;;;4918107;29;20047;-78
2022/05/29 10:32:37;;;;;;;15.55;2.80;;;;;;;;;;4933757;28;20100;-78
2022/05/29 10:35:30;;;;;;;14.05;2.35;;;;;;;;;;4983809;28;20093;-78
2022/05/29 10:37:56;;;;;;;8.88;1.70;;;;;;;;;;5006317;28;20059;-78
2022/05/29 10:40:29;;;;;;;8.00;1.77;;;;;;;;;;4984320;28;20070;-78
2022/05/29 10:43:00;;;;;;;13.95;3.08;;;;;;;;;;4933794;29;20066;-77
2022/05/29 10:45:41;;;;;;;7.47;1.83;;;;;;;;;;4918177;29;20115;-78
2022/05/29 10:48:34;;;;;;;12.00;1.70;;;;;;;;;;4933616;28;20043;-78
2022/05/29 10:51:20;;;;;;;6.97;1.30;;;;;;;;;;4933393;28;20035;-77
2022/05/29 10:53:59;;;;;;;7.25;1.30;;;;;;;;;;4933149;28;20047;-77
2022/05/29 10:56:52;;;;;;;9.20;1.75;;;;;;;;;;4950252;28;20101;-77
2022/05/29 10:59:38;;;;;;;8.93;1.52;;;;;;;;;;4948007;29;20051;-76
2022/05/29 11:05:30;;;;;;;142.80;109.50;;;;;;;;;;4968327;28;20051;-77
2022/05/29 11:08:04;;;;;;;140.32;97.85;;;;;;;;;;4951172;28;20034;-76
2022/05/29 11:10:49;;;;;;;66.45;45.92;;;;;;;;;;4968548;28;20398;-76
2022/05/29 11:13:28;;;;;;;48.50;32.92;;;;;;;;;;4970300;28;20042;-78
2022/05/29 11:16:12;;;;;;;35.60;24.35;;;;;;;;;;4937974;28;20059;-77
2022/05/29 11:19:14;;;;;;;35.72;22.33;;;;;;;;;;4956258;28;20530;-76
2022/05/29 11:22:13;;;;;;;33.28;19.33;;;;;;;;;;4955697;28;20043;-77
2022/05/29 11:25:10;;;;;;;30.10;17.35;;;;;;;;;;4973048;28;20054;-77
2022/05/29 11:27:41;;;;;;;24.65;15.23;;;;;;;;;;4954608;28;20073;-77
2022/05/29 11:30:20;;;;;;;27.77;14.80;;;;;;;;;;4952680;28;20571;-77
2022/05/29 11:33:01;;;;;;;25.05;13.60;;;;;;;;;;4936869;29;20042;-77
2022/05/29 11:35:27;;;;;;;22.65;11.82;;;;;;;;;;4952032;29;20126;-77
2022/05/29 11:37:59;;;;;;;23.88;11.52;;;;;;;;;;4953496;28;20122;-77
2022/05/29 11:40:31;;;;;;;23.70;10.68;;;;;;;;;;4952439;29;20043;-77
2022/05/29 11:43:11;;;;;;;18.90;9.23;;;;;;;;;;4936147;29;20027;-77
2022/05/29 11:51:21;;;;;;;15.98;8.02;;;;;;;;;;4938357;29;20525;-77
2022/05/29 11:54:05;;;;;;;14.43;7.28;;;;;;;;;;4936129;29;20100;-77
2022/05/29 11:56:53;;;;;;;13.00;6.90;;;;;;;;;;4951924;28;20547;-77
2022/05/29 11:59:37;;;;;;;10.95;6.43;;;;;;;;;;5020104;28;20098;-77
2022/05/29 12:02:26;;;;;;;20.55;6.63;;;;;;;;;;5019906;28;20073;-77
2022/05/29 12:05:25;;;;;;;10.98;6.07;;;;;;;;;;4935872;28;20039;-77
2022/05/29 12:08:10;;;;;;;11.02;5.40;;;;;;;;;;4922509;28;20512;-77
2022/05/29 12:10:59;;;;;;;9.95;5.00;;;;;;;;;;4922838;29;20517;-77
2022/05/29 12:13:27;;;;;;;11.77;4.22;;;;;;;;;;4922354;29;20043;-77
2022/05/29 12:16:02;;;;;;;8.73;3.65;;;;;;;;;;4920632;28;20520;-77
2022/05/29 12:18:36;;;;;;;8.63;3.25;;;;;;;;;;4920087;28;20035;-77
2022/05/29 12:21:01;;;;;;;10.75;3.80;;;;;;;;;;4919774;28;20066;-79
2022/05/29 12:23:38;;;;;;;14.32;3.75;;;;;;;;;;4918455;28;20035;-78
2022/05/29 12:26:25;;;;;;;11.43;3.28;;;;;;;;;;4950865;28;20444;-78
2022/05/29 12:28:53;;;;;;;8.55;3.63;;;;;;;;;;4956932;28;20050;-79
2022/05/29 12:31:26;;;;;;;28.05;4.88;;;;;;;;;;4946092;28;20042;-79
2022/05/29 12:33:53;;;;;;;38.83;5.43;;;;;;;;;;4951021;29;20551;-80
2022/05/29 12:37:12;;;;;;;72.38;8.85;;;;;;;;;;4919637;28;20063;-79
2022/05/29 12:40:11;;;;;;;27.90;5.07;;;;;;;;;;4931283;28;20055;-79
2022/05/29 12:42:57;;;;;;;62.45;10.45;;;;;;;;;;4917216;28;20071;-80
2022/05/29 12:45:44;;;;;;;32.88;5.70;;;;;;;;;;4934589;28;20556;-80
2022/05/29 12:48:19;;;;;;;23.88;5.35;;;;;;;;;;5001697;28;20043;-80
2022/05/29 12:50:52;;;;;;;42.78;7.25;;;;;;;;;;4935143;29;20383;-79
2022/05/29 12:53:24;;;;;;;25.17;5.57;;;;;;;;;;4934827;29;20071;-81
2022/05/29 12:56:11;;;;;;;14.65;3.25;;;;;;;;;;4935005;28;20045;-81
2022/05/29 12:58:50;;;;;;;17.35;3.30;;;;;;;;;;4983508;28;20035;-79
2022/05/29 13:01:34;;;;;;;13.70;3.75;;;;;;;;;;5016744;28;20043;-79
2022/05/29 13:04:15;;;;;;;9.40;2.13;;;;;;;;;;5014167;28;20039;-79
2022/05/29 13:07:09;;;;;;;8.88;2.15;;;;;;;;;;4967938;28;20047;-79
2022/05/29 13:09:55;;;;;;;11.00;2.47;;;;;;;;;;4931502;29;20603;-80
2022/05/29 13:12:25;;;;;;;11.05;2.03;;;;;;;;;;4915518;28;20051;-80
2022/05/29 13:14:57;;;;;;;7.00;1.80;;;;;;;;;;4982835;28;20457;-80
2022/05/29 13:17:27;;;;;;;8.85;1.63;;;;;;;;;;4915458;28;20058;-80
2022/05/29 13:20:11;;;;;;;5.70;1.83;;;;;;;;;;4996337;28;20506;-79
2022/05/29 13:22:56;;;;;;;9.77;2.03;;;;;;;;;;4931859;29;20052;-79
2022/05/29 13:25:25;;;;;;;7.70;1.45;;;;;;;;;;4931649;28;20036;-78
2022/05/29 13:27:51;;;;;;;6.50;1.85;;;;;;;;;;4968861;28;20042;-80
2022/05/29 13:30:38;;;;;;;6.47;1.98;;;;;;;;;;4918987;29;20502;-80
2022/05/29 13:33:25;;;;;;;5.20;1.92;;;;;;;;;;4933872;28;20109;-80
2022/05/29 13:35:50;;;;;;;5.72;1.15;;;;;;;;;;4938168;28;20055;-79
2022/05/29 13:38:42;;;;;;;6.25;2.00;;;;;;;;;;4903395;29;20509;-79
2022/05/29 13:41:07;;;;;;;4.53;0.95;;;;;;;;;;4950703;28;20228;-78
2022/05/29 13:43:37;;;;;;;3.67;0.98;;;;;;;;;;4899465;28;20445;-78
2022/05/29 13:46:08;;;;;;;9.20;1.70;;;;;;;;;;4981880;28;20062;-79
2022/05/29 13:48:33;;;;;;;12.52;1.98;;;;;;;;;;4981337;28;20047;-79
2022/05/29 13:51:13;;;;;;;8.15;1.55;;;;;;;;;;4930912;29;20054;-78
2022/05/29 13:53:50;;;;;;;7.68;2.63;;;;;;;;;;4981361;28;20077;-79
2022/05/29 13:56:18;;;;;;;344.05;230.38;;;;;;;;;;4916164;29;20063;-79
2022/05/29 14:04:47;;;;;;;191.85;120.88;;;;;;;;;;4970565;28;20392;-79
2022/05/29 14:07:17;;;;;;;496.98;369.42;;;;;;;;;;5020801;28;20413;-79
2022/05/29 14:10:01;;;;;;;414.40;306.17;;;;;;;;;;4953403;28;20035;-80
2022/05/29 14:12:36;;;;;;;320.65;227.27;;;;;;;;;;4939628;28;20481;-80
2022/05/29 14:15:44;;;;;;;389.23;302.58;;;;;;;;;;4968893;28;20078;-79
2022/05/29 14:18:22;;;;;;;150.52;114.07;;;;;;;;;;4932751;28;20458;-79
2022/05/29 14:21:09;;;;;;;304.15;222.60;;;;;;;;;;4934134;29;20059;-79
2022/05/29 14:23:54;;;;;;;320.33;231.73;;;;;;;;;;4934155;28;20054;-78
2022/05/29 14:26:46;;;;;;;513.85;366.98;;;;;;;;;;4950900;28;20039;-78
2022/05/29 14:29:38;;;;;;;445.27;309.58;;;;;;;;;;4990509;28;20043;-78
2022/05/29 14:32:22;;;;;;;;;;;;;;;;;;4951557;28;20465;-78
2022/05/29 14:35:03;;;;;;;276.08;188.02;;;;;;;;;;5017078;28;19926;-78
2022/05/29 14:37:47;;;;;;;215.00;142.05;;;;;;;;;;4999045;28;20058;-78
2022/05/29 14:40:31;;;;;;;220.45;144.00;;;;;;;;;;4933798;29;20047;-78
2022/05/29 14:42:57;;;;;;;186.93;127.38;;;;;;;;;;4953025;28;20172;-78
2022/05/29 14:45:26;;;;;;;170.98;116.05;;;;;;;;;;4951853;28;20047;-78
2022/05/29 14:47:55;;;;;;;146.10;97.43;;;;;;;;;;4953067;28;20034;-78
2022/05/29 14:50:29;;;;;;;151.30;102.60;;;;;;;;;;4952956;28;20039;-78
2022/05/29 14:53:22;;;;;;;135.18;91.47;;;;;;;;;;4952639;28;20031;-78
2022/05/29 14:55:55;;;;;;;128.35;87.20;;;;;;;;;;4952174;28;20051;-78
2022/05/29 14:58:27;;;;;;;119.35;80.55;;;;;;;;;;4934423;28;20035;-78
2022/05/29 15:00:53;;;;;;;114.22;80.80;;;;;;;;;;4985693;28;20048;-78
2022/05/29 15:03:23;;;;;;;111.80;71.20;;;;;;;;;;4952396;28;20042;-77
2022/05/29 15:05:51;;;;;;;97.72;64.18;;;;;;;;;;4937569;28;20497;-78
2022/05/29 15:11:05;;;;;;;80.13;53.45;;;;;;;;;;4955142;28;20039;-78
2022/05/29 15:13:57;;;;;;;82.00;53.13;;;;;;;;;;4920851;28;20034;-78
2022/05/29 15:16:33;;;;;;;72.50;46.63;;;;;;;;;;4954167;28;20046;-78
2022/05/29 15:25:13;;;;;;;53.10;36.75;;;;;;;;;;4938714;28;20100;-78
2022/05/29 15:27:42;;;;;;;54.58;35.50;;;;;;;;;;4934646;28;20054;-78
2022/05/29 15:30:13;;;;;;;44.05;30.65;;;;;;;;;;4917647;29;20406;-78
2022/05/29 15:32:38;;;;;;;46.42;30.23;;;;;;;;;;4933611;28;20047;-78
2022/05/29 15:35:10;;;;;;;35.97;25.02;;;;;;;;;;4933334;28;20058;-78
2022/05/29 15:38:02;;;;;;;38.22;25.40;;;;;;;;;;4933117;28;20146;-79
2022/05/29 15:40:50;;;;;;;34.43;23.50;;;;;;;;;;5016424;28;20138;-78
2022/05/29 15:43:28;;;;;;;28.90;21.40;;;;;;;;;;4955585;28;20039;-78
2022/05/29 15:46:02;;;;;;;31.85;21.67;;;;;;;;;;4968066;28;20501;-78
2022/05/29 15:48:47;;;;;;;31.55;20.98;;;;;;;;;;4969084;28;20057;-78
2022/05/29 15:51:32;;;;;;;26.48;17.80;;;;;;;;;;4952224;28;20043;-78
2022/05/29 15:54:28;;;;;;;28.42;17.42;;;;;;;;;;4954734;28;20124;-78
2022/05/29 15:57:12;;;;;;;25.23;15.90;;;;;;;;;;4948874;28;20046;-78